sensor_id;sensor_type;location;lat;lon;timestamp;P1;durP1;ratioP1;P2;durP2;ratioP2
53646;SDS011;39550;52.230;5.194;2024-02-16T00:00:02;7.90;;;4.43;;
53646;SDS011;39550;52.230;5.194;2024-02-16T00:02:28;6.63;;;4.18;;
53646;SDS011;39550;52.230;5.194;2024-02-16T00:04:53;5.50;;;3.50;;
53646;SDS011;39550;52.230;5.194;2024-02-16T00:07:18;5.82;;;3.72;;
53646;SDS011;39550;52.230;5.194;2024-02-16T00:09:47;5.70;;;3.40;;
53646;SDS011;39550;52.230;5.194;2024-02-16T00:12:12;6.82;;;3.88;;
53646;SDS011;39550;52.230;5.194;2024-02-16T00:14:37;6.80;;;3.40;;
53646;SDS011;39550;52.230;5.194;2024-02-16T00:17:02;5.28;;;3.33;;
53646;SDS011;39550;52.230;5.194;2024-02-16T00:19:29;6.18;;;3.40;;
53646;SDS011;39550;52.230;5.194;2024-02-16T00:21:54;7.28;;;4.07;;
53646;SDS011;39550;52.230;5.194;2024-02-16T00:24:20;6.28;;;3.58;;
53646;SDS011;39550;52.230;5.194;2024-02-16T00:26:46;4.75;;;3.33;;
53646;SDS011;39550;52.230;5.194;2024-02-16T00:29:11;6.22;;;3.80;;
53646;SDS011;39550;52.230;5.194;2024-02-16T00:31:37;6.28;;;3.70;;
53646;SDS011;39550;52.230;5.194;2024-02-16T00:34:03;4.60;;;3.10;;
53646;SDS011;39550;52.230;5.194;2024-02-16T00:36:28;5.90;;;3.42;;
53646;SDS011;39550;52.230;5.194;2024-02-16T00:38:55;5.75;;;3.60;;
53646;SDS011;39550;52.230;5.194;2024-02-16T00:41:21;5.72;;;3.53;;
53646;SDS011;39550;52.230;5.194;2024-02-16T00:43:47;7.18;;;3.50;;
53646;SDS011;39550;52.230;5.194;2024-02-16T00:46:13;6.35;;;3.65;;
53646;SDS011;39550;52.230;5.194;2024-02-16T00:48:38;5.38;;;3.13;;
53646;SDS011;39550;52.230;5.194;2024-02-16T00:51:03;7.72;;;3.55;;
53646;SDS011;39550;52.230;5.194;2024-02-16T00:53:29;6.03;;;3.45;;
53646;SDS011;39550;52.230;5.194;2024-02-16T00:55:54;7.28;;;3.70;;
53646;SDS011;39550;52.230;5.194;2024-02-16T00:58:19;5.90;;;3.40;;
53646;SDS011;39550;52.230;5.194;2024-02-16T01:00:45;5.25;;;3.45;;
53646;SDS011;39550;52.230;5.194;2024-02-16T01:03:10;5.68;;;3.53;;
53646;SDS011;39550;52.230;5.194;2024-02-16T01:05:37;6.40;;;3.72;;
53646;SDS011;39550;52.230;5.194;2024-02-16T01:08:02;5.60;;;3.47;;
53646;SDS011;39550;52.230;5.194;2024-02-16T01:10:28;6.68;;;3.50;;
53646;SDS011;39550;52.230;5.194;2024-02-16T01:12:53;5.63;;;3.75;;
53646;SDS011;39550;52.230;5.194;2024-02-16T01:15:20;5.20;;;3.42;;
53646;SDS011;39550;52.230;5.194;2024-02-16T01:17:46;5.93;;;3.85;;
53646;SDS011;39550;52.230;5.194;2024-02-16T01:20:11;5.95;;;3.47;;
53646;SDS011;39550;52.230;5.194;2024-02-16T01:22:37;5.00;;;3.50;;
53646;SDS011;39550;52.230;5.194;2024-02-16T01:25:03;6.72;;;3.85;;
53646;SDS011;39550;52.230;5.194;2024-02-16T01:27:28;6.75;;;3.92;;
53646;SDS011;39550;52.230;5.194;2024-02-16T01:29:54;5.95;;;3.35;;
53646;SDS011;39550;52.230;5.194;2024-02-16T01:32:19;7.68;;;3.47;;
53646;SDS011;39550;52.230;5.194;2024-02-16T01:34:44;5.05;;;3.40;;
53646;SDS011;39550;52.230;5.194;2024-02-16T01:37:12;6.35;;;3.47;;
53646;SDS011;39550;52.230;5.194;2024-02-16T01:39:37;6.50;;;3.83;;
53646;SDS011;39550;52.230;5.194;2024-02-16T01:42:02;7.25;;;3.60;;
53646;SDS011;39550;52.230;5.194;2024-02-16T01:44:28;7.57;;;3.60;;
53646;SDS011;39550;52.230;5.194;2024-02-16T01:46:53;6.97;;;3.90;;
53646;SDS011;39550;52.230;5.194;2024-02-16T01:49:18;5.88;;;3.92;;
53646;SDS011;39550;52.230;5.194;2024-02-16T01:51:44;5.95;;;3.75;;
53646;SDS011;39550;52.230;5.194;2024-02-16T01:54:12;5.45;;;3.45;;
53646;SDS011;39550;52.230;5.194;2024-02-16T01:56:37;5.28;;;3.58;;
53646;SDS011;39550;52.230;5.194;2024-02-16T01:59:03;5.00;;;3.42;;
53646;SDS011;39550;52.230;5.194;2024-02-16T02:01:29;6.82;;;3.70;;
53646;SDS011;39550;52.230;5.194;2024-02-16T02:03:54;4.93;;;3.30;;
53646;SDS011;39550;52.230;5.194;2024-02-16T02:06:20;5.28;;;3.70;;
53646;SDS011;39550;52.230;5.194;2024-02-16T02:08:46;5.35;;;3.45;;
53646;SDS011;39550;52.230;5.194;2024-02-16T02:11:11;5.38;;;3.38;;
53646;SDS011;39550;52.230;5.194;2024-02-16T02:13:37;5.95;;;3.80;;
53646;SDS011;39550;52.230;5.194;2024-02-16T02:16:02;7.50;;;3.80;;
53646;SDS011;39550;52.230;5.194;2024-02-16T02:18:29;6.00;;;3.70;;
53646;SDS011;39550;52.230;5.194;2024-02-16T02:20:54;7.47;;;3.60;;
53646;SDS011;39550;52.230;5.194;2024-02-16T02:23:20;5.18;;;3.53;;
53646;SDS011;39550;52.230;5.194;2024-02-16T02:25:46;5.50;;;3.30;;
53646;SDS011;39550;52.230;5.194;2024-02-16T02:28:12;6.63;;;3.90;;
53646;SDS011;39550;52.230;5.194;2024-02-16T02:30:38;6.15;;;3.45;;
53646;SDS011;39550;52.230;5.194;2024-02-16T02:33:04;5.13;;;3.42;;
53646;SDS011;39550;52.230;5.194;2024-02-16T02:35:29;5.60;;;3.60;;
53646;SDS011;39550;52.230;5.194;2024-02-16T02:37:55;5.70;;;3.75;;
53646;SDS011;39550;52.230;5.194;2024-02-16T02:40:20;6.40;;;3.45;;
53646;SDS011;39550;52.230;5.194;2024-02-16T02:42:45;5.70;;;3.30;;
53646;SDS011;39550;52.230;5.194;2024-02-16T02:45:11;6.00;;;3.70;;
53646;SDS011;39550;52.230;5.194;2024-02-16T02:47:36;5.63;;;3.72;;
53646;SDS011;39550;52.230;5.194;2024-02-16T02:50:02;5.63;;;3.38;;
53646;SDS011;39550;52.230;5.194;2024-02-16T02:52:27;6.07;;;3.45;;
53646;SDS011;39550;52.230;5.194;2024-02-16T02:54:52;5.68;;;3.65;;
53646;SDS011;39550;52.230;5.194;2024-02-16T02:57:18;6.22;;;3.65;;
53646;SDS011;39550;52.230;5.194;2024-02-16T02:59:43;5.40;;;3.60;;
53646;SDS011;39550;52.230;5.194;2024-02-16T03:02:10;6.15;;;3.50;;
53646;SDS011;39550;52.230;5.194;2024-02-16T03:04:35;5.32;;;3.53;;
53646;SDS011;39550;52.230;5.194;2024-02-16T03:07:00;9.60;;;3.45;;
53646;SDS011;39550;52.230;5.194;2024-02-16T03:09:26;6.60;;;3.58;;
53646;SDS011;39550;52.230;5.194;2024-02-16T03:11:51;9.50;;;3.78;;
53646;SDS011;39550;52.230;5.194;2024-02-16T03:14:17;6.00;;;3.58;;
53646;SDS011;39550;52.230;5.194;2024-02-16T03:16:42;5.88;;;3.72;;
53646;SDS011;39550;52.230;5.194;2024-02-16T03:19:08;7.60;;;3.38;;
53646;SDS011;39550;52.230;5.194;2024-02-16T03:21:36;5.60;;;3.72;;
53646;SDS011;39550;52.230;5.194;2024-02-16T03:24:02;5.60;;;3.42;;
53646;SDS011;39550;52.230;5.194;2024-02-16T03:26:28;6.55;;;3.78;;
53646;SDS011;39550;52.230;5.194;2024-02-16T03:28:54;6.97;;;3.35;;
53646;SDS011;39550;52.230;5.194;2024-02-16T03:31:21;6.95;;;3.83;;
53646;SDS011;39550;52.230;5.194;2024-02-16T03:33:48;5.45;;;3.38;;
53646;SDS011;39550;52.230;5.194;2024-02-16T03:36:15;6.60;;;3.63;;
53646;SDS011;39550;52.230;5.194;2024-02-16T03:38:50;5.53;;;3.22;;
53646;SDS011;39550;52.230;5.194;2024-02-16T03:41:17;6.25;;;3.67;;
53646;SDS011;39550;52.230;5.194;2024-02-16T03:43:46;6.25;;;3.70;;
53646;SDS011;39550;52.230;5.194;2024-02-16T03:46:12;5.60;;;3.50;;
53646;SDS011;39550;52.230;5.194;2024-02-16T03:48:38;5.88;;;3.53;;
53646;SDS011;39550;52.230;5.194;2024-02-16T03:51:04;6.32;;;3.70;;
53646;SDS011;39550;52.230;5.194;2024-02-16T03:53:30;5.38;;;3.38;;
53646;SDS011;39550;52.230;5.194;2024-02-16T03:55:55;5.80;;;3.78;;
53646;SDS011;39550;52.230;5.194;2024-02-16T03:58:21;5.72;;;3.58;;
53646;SDS011;39550;52.230;5.194;2024-02-16T04:00:47;6.40;;;3.70;;
53646;SDS011;39550;52.230;5.194;2024-02-16T04:03:13;6.40;;;3.58;;
53646;SDS011;39550;52.230;5.194;2024-02-16T04:05:39;6.53;;;4.07;;
53646;SDS011;39550;52.230;5.194;2024-02-16T04:08:04;5.78;;;3.75;;
53646;SDS011;39550;52.230;5.194;2024-02-16T04:10:31;6.93;;;3.78;;
53646;SDS011;39550;52.230;5.194;2024-02-16T04:12:56;6.22;;;3.67;;
53646;SDS011;39550;52.230;5.194;2024-02-16T04:15:22;5.95;;;3.45;;
53646;SDS011;39550;52.230;5.194;2024-02-16T04:17:47;7.55;;;3.50;;
53646;SDS011;39550;52.230;5.194;2024-02-16T04:20:14;7.65;;;4.90;;
53646;SDS011;39550;52.230;5.194;2024-02-16T04:22:40;5.43;;;3.63;;
53646;SDS011;39550;52.230;5.194;2024-02-16T04:25:05;5.30;;;3.38;;
53646;SDS011;39550;52.230;5.194;2024-02-16T04:27:31;5.57;;;3.55;;
53646;SDS011;39550;52.230;5.194;2024-02-16T04:29:56;6.05;;;3.50;;
53646;SDS011;39550;52.230;5.194;2024-02-16T04:32:22;6.00;;;3.75;;
53646;SDS011;39550;52.230;5.194;2024-02-16T04:34:50;7.50;;;4.07;;
53646;SDS011;39550;52.230;5.194;2024-02-16T04:37:17;6.47;;;3.80;;
53646;SDS011;39550;52.230;5.194;2024-02-16T04:39:43;5.68;;;3.50;;
53646;SDS011;39550;52.230;5.194;2024-02-16T04:42:09;6.60;;;4.03;;
53646;SDS011;39550;52.230;5.194;2024-02-16T04:44:36;5.53;;;3.60;;
53646;SDS011;39550;52.230;5.194;2024-02-16T04:47:03;5.45;;;3.42;;
53646;SDS011;39550;52.230;5.194;2024-02-16T04:49:29;6.07;;;3.97;;
53646;SDS011;39550;52.230;5.194;2024-02-16T04:51:54;6.63;;;4.53;;
53646;SDS011;39550;52.230;5.194;2024-02-16T04:54:19;6.88;;;3.45;;
53646;SDS011;39550;52.230;5.194;2024-02-16T04:56:45;6.20;;;3.80;;
53646;SDS011;39550;52.230;5.194;2024-02-16T04:59:10;6.80;;;3.65;;
53646;SDS011;39550;52.230;5.194;2024-02-16T05:01:35;5.53;;;3.65;;
53646;SDS011;39550;52.230;5.194;2024-02-16T05:04:01;7.32;;;4.13;;
53646;SDS011;39550;52.230;5.194;2024-02-16T05:06:27;6.85;;;3.40;;
53646;SDS011;39550;52.230;5.194;2024-02-16T05:08:52;5.57;;;3.60;;
53646;SDS011;39550;52.230;5.194;2024-02-16T05:11:18;6.45;;;4.32;;
53646;SDS011;39550;52.230;5.194;2024-02-16T05:13:44;5.68;;;3.45;;
53646;SDS011;39550;52.230;5.194;2024-02-16T05:16:10;5.60;;;3.33;;
53646;SDS011;39550;52.230;5.194;2024-02-16T05:18:36;6.82;;;4.03;;
53646;SDS011;39550;52.230;5.194;2024-02-16T05:21:01;5.93;;;3.60;;
53646;SDS011;39550;52.230;5.194;2024-02-16T05:23:27;6.10;;;3.90;;
53646;SDS011;39550;52.230;5.194;2024-02-16T05:25:52;6.35;;;3.65;;
53646;SDS011;39550;52.230;5.194;2024-02-16T05:28:19;7.97;;;4.15;;
53646;SDS011;39550;52.230;5.194;2024-02-16T05:30:44;5.10;;;3.53;;
53646;SDS011;39550;52.230;5.194;2024-02-16T05:33:10;7.80;;;3.78;;
53646;SDS011;39550;52.230;5.194;2024-02-16T05:35:35;6.13;;;4.00;;
53646;SDS011;39550;52.230;5.194;2024-02-16T05:38:04;6.15;;;3.70;;
53646;SDS011;39550;52.230;5.194;2024-02-16T05:40:35;6.20;;;3.63;;
53646;SDS011;39550;52.230;5.194;2024-02-16T05:43:18;6.43;;;4.03;;
53646;SDS011;39550;52.230;5.194;2024-02-16T05:45:43;5.13;;;3.75;;
53646;SDS011;39550;52.230;5.194;2024-02-16T05:48:08;6.47;;;4.20;;
53646;SDS011;39550;52.230;5.194;2024-02-16T05:50:35;7.90;;;3.90;;
53646;SDS011;39550;52.230;5.194;2024-02-16T05:53:00;6.00;;;3.58;;
53646;SDS011;39550;52.230;5.194;2024-02-16T05:55:26;6.38;;;3.60;;
53646;SDS011;39550;52.230;5.194;2024-02-16T05:57:51;5.82;;;3.60;;
53646;SDS011;39550;52.230;5.194;2024-02-16T06:00:16;5.68;;;3.42;;
53646;SDS011;39550;52.230;5.194;2024-02-16T06:02:46;8.25;;;3.75;;
53646;SDS011;39550;52.230;5.194;2024-02-16T06:05:11;5.68;;;4.07;;
53646;SDS011;39550;52.230;5.194;2024-02-16T06:07:36;6.60;;;3.90;;
53646;SDS011;39550;52.230;5.194;2024-02-16T06:10:05;7.47;;;4.15;;
53646;SDS011;39550;52.230;5.194;2024-02-16T06:12:36;6.35;;;3.88;;
53646;SDS011;39550;52.230;5.194;2024-02-16T06:15:02;5.93;;;3.90;;
53646;SDS011;39550;52.230;5.194;2024-02-16T06:17:27;5.80;;;3.60;;
53646;SDS011;39550;52.230;5.194;2024-02-16T06:19:52;11.00;;;4.35;;
53646;SDS011;39550;52.230;5.194;2024-02-16T06:22:18;7.38;;;4.38;;
53646;SDS011;39550;52.230;5.194;2024-02-16T06:24:44;9.00;;;4.22;;
53646;SDS011;39550;52.230;5.194;2024-02-16T06:27:09;6.53;;;4.05;;
53646;SDS011;39550;52.230;5.194;2024-02-16T06:29:35;8.02;;;4.68;;
53646;SDS011;39550;52.230;5.194;2024-02-16T06:32:00;6.32;;;3.90;;
53646;SDS011;39550;52.230;5.194;2024-02-16T06:34:27;5.95;;;4.28;;
53646;SDS011;39550;52.230;5.194;2024-02-16T06:36:52;6.63;;;4.35;;
53646;SDS011;39550;52.230;5.194;2024-02-16T06:39:17;6.47;;;4.10;;
53646;SDS011;39550;52.230;5.194;2024-02-16T06:41:43;6.32;;;4.10;;
53646;SDS011;39550;52.230;5.194;2024-02-16T06:44:10;6.97;;;4.30;;
53646;SDS011;39550;52.230;5.194;2024-02-16T06:46:36;6.20;;;3.95;;
53646;SDS011;39550;52.230;5.194;2024-02-16T06:49:01;7.28;;;4.20;;
53646;SDS011;39550;52.230;5.194;2024-02-16T06:51:27;6.15;;;3.97;;
53646;SDS011;39550;52.230;5.194;2024-02-16T06:53:53;7.90;;;3.85;;
53646;SDS011;39550;52.230;5.194;2024-02-16T06:56:19;5.90;;;3.70;;
53646;SDS011;39550;52.230;5.194;2024-02-16T06:58:47;7.00;;;4.13;;
53646;SDS011;39550;52.230;5.194;2024-02-16T07:01:13;6.55;;;3.85;;
53646;SDS011;39550;52.230;5.194;2024-02-16T07:03:39;7.47;;;4.28;;
53646;SDS011;39550;52.230;5.194;2024-02-16T07:06:05;6.32;;;4.47;;
53646;SDS011;39550;52.230;5.194;2024-02-16T07:11:03;7.22;;;4.15;;
53646;SDS011;39550;52.230;5.194;2024-02-16T07:13:28;5.75;;;3.78;;
53646;SDS011;39550;52.230;5.194;2024-02-16T07:15:54;6.70;;;4.20;;
53646;SDS011;39550;52.230;5.194;2024-02-16T07:18:19;7.30;;;4.05;;
53646;SDS011;39550;52.230;5.194;2024-02-16T07:20:46;6.80;;;4.22;;
53646;SDS011;39550;52.230;5.194;2024-02-16T07:23:12;7.07;;;4.25;;
53646;SDS011;39550;52.230;5.194;2024-02-16T07:25:38;7.72;;;4.38;;
53646;SDS011;39550;52.230;5.194;2024-02-16T07:28:03;8.00;;;4.72;;
53646;SDS011;39550;52.230;5.194;2024-02-16T07:30:29;6.95;;;4.20;;
53646;SDS011;39550;52.230;5.194;2024-02-16T07:32:55;7.03;;;4.57;;
53646;SDS011;39550;52.230;5.194;2024-02-16T07:35:20;7.38;;;4.60;;
53646;SDS011;39550;52.230;5.194;2024-02-16T07:37:49;7.18;;;4.50;;
53646;SDS011;39550;52.230;5.194;2024-02-16T07:40:17;6.47;;;4.30;;
53646;SDS011;39550;52.230;5.194;2024-02-16T07:42:42;9.45;;;4.50;;
53646;SDS011;39550;52.230;5.194;2024-02-16T07:45:09;7.32;;;4.40;;
53646;SDS011;39550;52.230;5.194;2024-02-16T07:47:36;9.77;;;6.18;;
53646;SDS011;39550;52.230;5.194;2024-02-16T07:50:01;7.00;;;4.53;;
53646;SDS011;39550;52.230;5.194;2024-02-16T07:52:28;7.20;;;4.72;;
53646;SDS011;39550;52.230;5.194;2024-02-16T07:54:53;7.45;;;4.55;;
53646;SDS011;39550;52.230;5.194;2024-02-16T07:57:19;6.40;;;4.22;;
53646;SDS011;39550;52.230;5.194;2024-02-16T07:59:44;7.35;;;4.63;;
53646;SDS011;39550;52.230;5.194;2024-02-16T08:02:09;8.77;;;4.95;;
53646;SDS011;39550;52.230;5.194;2024-02-16T08:04:40;6.63;;;4.63;;
53646;SDS011;39550;52.230;5.194;2024-02-16T08:07:06;8.30;;;4.55;;
53646;SDS011;39550;52.230;5.194;2024-02-16T08:09:31;7.82;;;4.85;;
53646;SDS011;39550;52.230;5.194;2024-02-16T08:11:56;7.22;;;4.40;;
53646;SDS011;39550;52.230;5.194;2024-02-16T08:14:22;8.70;;;5.65;;
53646;SDS011;39550;52.230;5.194;2024-02-16T08:16:47;8.30;;;5.15;;
53646;SDS011;39550;52.230;5.194;2024-02-16T08:19:12;7.50;;;4.50;;
53646;SDS011;39550;52.230;5.194;2024-02-16T08:21:39;8.05;;;4.78;;
53646;SDS011;39550;52.230;5.194;2024-02-16T08:24:04;7.88;;;4.63;;
53646;SDS011;39550;52.230;5.194;2024-02-16T08:26:30;8.70;;;5.10;;
53646;SDS011;39550;52.230;5.194;2024-02-16T08:28:56;8.93;;;4.65;;
53646;SDS011;39550;52.230;5.194;2024-02-16T08:31:21;7.72;;;4.97;;
53646;SDS011;39550;52.230;5.194;2024-02-16T08:33:47;9.52;;;4.88;;
53646;SDS011;39550;52.230;5.194;2024-02-16T08:36:12;7.93;;;4.75;;
53646;SDS011;39550;52.230;5.194;2024-02-16T08:38:39;7.95;;;4.93;;
53646;SDS011;39550;52.230;5.194;2024-02-16T08:41:04;7.90;;;4.72;;
53646;SDS011;39550;52.230;5.194;2024-02-16T08:43:30;9.07;;;4.43;;
53646;SDS011;39550;52.230;5.194;2024-02-16T08:45:55;8.35;;;4.93;;
53646;SDS011;39550;52.230;5.194;2024-02-16T08:48:21;6.90;;;4.63;;
53646;SDS011;39550;52.230;5.194;2024-02-16T08:50:47;10.07;;;5.22;;
53646;SDS011;39550;52.230;5.194;2024-02-16T08:53:13;9.50;;;4.60;;
53646;SDS011;39550;52.230;5.194;2024-02-16T08:55:41;9.55;;;5.07;;
53646;SDS011;39550;52.230;5.194;2024-02-16T08:58:09;7.75;;;4.45;;
53646;SDS011;39550;52.230;5.194;2024-02-16T09:00:34;8.20;;;4.93;;
53646;SDS011;39550;52.230;5.194;2024-02-16T09:03:00;6.93;;;4.82;;
53646;SDS011;39550;52.230;5.194;2024-02-16T09:05:27;7.57;;;4.57;;
53646;SDS011;39550;52.230;5.194;2024-02-16T09:07:53;8.30;;;4.93;;
53646;SDS011;39550;52.230;5.194;2024-02-16T09:10:18;7.60;;;4.97;;
53646;SDS011;39550;52.230;5.194;2024-02-16T09:12:43;7.22;;;4.40;;
53646;SDS011;39550;52.230;5.194;2024-02-16T09:15:09;7.28;;;4.63;;
53646;SDS011;39550;52.230;5.194;2024-02-16T09:17:34;9.57;;;5.00;;
53646;SDS011;39550;52.230;5.194;2024-02-16T09:19:59;7.53;;;4.88;;
53646;SDS011;39550;52.230;5.194;2024-02-16T09:22:25;9.02;;;5.22;;
53646;SDS011;39550;52.230;5.194;2024-02-16T09:24:50;6.82;;;4.65;;
53646;SDS011;39550;52.230;5.194;2024-02-16T09:27:15;7.55;;;4.82;;
53646;SDS011;39550;52.230;5.194;2024-02-16T09:29:41;7.55;;;4.53;;
53646;SDS011;39550;52.230;5.194;2024-02-16T09:32:06;8.27;;;5.00;;
53646;SDS011;39550;52.230;5.194;2024-02-16T09:34:31;8.07;;;5.43;;
53646;SDS011;39550;52.230;5.194;2024-02-16T09:36:57;7.82;;;4.95;;
53646;SDS011;39550;52.230;5.194;2024-02-16T09:39:22;7.47;;;4.78;;
53646;SDS011;39550;52.230;5.194;2024-02-16T09:41:49;8.50;;;4.82;;
53646;SDS011;39550;52.230;5.194;2024-02-16T09:44:17;8.60;;;5.18;;
53646;SDS011;39550;52.230;5.194;2024-02-16T09:46:43;8.57;;;5.30;;
53646;SDS011;39550;52.230;5.194;2024-02-16T09:49:08;7.75;;;5.50;;
53646;SDS011;39550;52.230;5.194;2024-02-16T09:51:36;8.98;;;5.20;;
53646;SDS011;39550;52.230;5.194;2024-02-16T09:54:03;9.15;;;5.78;;
53646;SDS011;39550;52.230;5.194;2024-02-16T09:56:28;8.40;;;5.53;;
53646;SDS011;39550;52.230;5.194;2024-02-16T09:58:54;7.80;;;5.75;;
53646;SDS011;39550;52.230;5.194;2024-02-16T10:01:20;8.65;;;5.30;;
53646;SDS011;39550;52.230;5.194;2024-02-16T10:03:47;8.00;;;5.07;;
53646;SDS011;39550;52.230;5.194;2024-02-16T10:06:14;9.85;;;5.20;;
53646;SDS011;39550;52.230;5.194;2024-02-16T10:09:21;8.60;;;5.53;;
53646;SDS011;39550;52.230;5.194;2024-02-16T10:11:32;8.57;;;5.57;;
53646;SDS011;39550;52.230;5.194;2024-02-16T10:13:58;8.07;;;5.35;;
53646;SDS011;39550;52.230;5.194;2024-02-16T10:16:23;9.27;;;4.95;;
53646;SDS011;39550;52.230;5.194;2024-02-16T10:18:49;9.75;;;5.68;;
53646;SDS011;39550;52.230;5.194;2024-02-16T10:21:23;9.27;;;5.68;;
53646;SDS011;39550;52.230;5.194;2024-02-16T10:24:03;12.90;;;6.63;;
53646;SDS011;39550;52.230;5.194;2024-02-16T10:26:33;9.75;;;6.15;;
53646;SDS011;39550;52.230;5.194;2024-02-16T10:29:02;9.10;;;6.20;;
53646;SDS011;39550;52.230;5.194;2024-02-16T10:31:28;9.90;;;6.22;;
53646;SDS011;39550;52.230;5.194;2024-02-16T10:34:02;11.32;;;6.15;;
53646;SDS011;39550;52.230;5.194;2024-02-16T10:36:31;10.55;;;6.75;;
53646;SDS011;39550;52.230;5.194;2024-02-16T10:38:59;10.30;;;6.78;;
53646;SDS011;39550;52.230;5.194;2024-02-16T10:41:27;10.88;;;6.28;;
53646;SDS011;39550;52.230;5.194;2024-02-16T10:43:56;10.90;;;6.60;;
53646;SDS011;39550;52.230;5.194;2024-02-16T10:46:22;9.43;;;6.10;;
53646;SDS011;39550;52.230;5.194;2024-02-16T10:48:50;10.50;;;6.05;;
53646;SDS011;39550;52.230;5.194;2024-02-16T10:51:17;11.00;;;6.18;;
53646;SDS011;39550;52.230;5.194;2024-02-16T10:53:46;8.82;;;6.05;;
53646;SDS011;39550;52.230;5.194;2024-02-16T10:56:13;11.15;;;6.47;;
53646;SDS011;39550;52.230;5.194;2024-02-16T10:58:38;12.18;;;6.60;;
53646;SDS011;39550;52.230;5.194;2024-02-16T11:01:14;10.57;;;6.60;;
53646;SDS011;39550;52.230;5.194;2024-02-16T11:03:40;11.82;;;6.78;;
53646;SDS011;39550;52.230;5.194;2024-02-16T11:06:15;11.40;;;7.28;;
53646;SDS011;39550;52.230;5.194;2024-02-16T11:08:41;9.18;;;6.43;;
53646;SDS011;39550;52.230;5.194;2024-02-16T11:11:07;9.73;;;6.63;;
53646;SDS011;39550;52.230;5.194;2024-02-16T11:13:35;12.57;;;7.40;;
53646;SDS011;39550;52.230;5.194;2024-02-16T11:16:02;13.25;;;7.25;;
53646;SDS011;39550;52.230;5.194;2024-02-16T11:18:30;11.60;;;7.57;;
53646;SDS011;39550;52.230;5.194;2024-02-16T11:20:59;11.82;;;7.28;;
53646;SDS011;39550;52.230;5.194;2024-02-16T11:23:29;13.43;;;7.78;;
53646;SDS011;39550;52.230;5.194;2024-02-16T11:26:02;12.77;;;7.45;;
53646;SDS011;39550;52.230;5.194;2024-02-16T11:28:32;15.95;;;8.45;;
53646;SDS011;39550;52.230;5.194;2024-02-16T11:30:59;11.63;;;6.97;;
53646;SDS011;39550;52.230;5.194;2024-02-16T11:33:28;13.07;;;7.50;;
53646;SDS011;39550;52.230;5.194;2024-02-16T11:35:57;13.45;;;7.30;;
53646;SDS011;39550;52.230;5.194;2024-02-16T11:38:33;12.43;;;7.65;;
53646;SDS011;39550;52.230;5.194;2024-02-16T11:41:00;12.18;;;7.13;;
53646;SDS011;39550;52.230;5.194;2024-02-16T11:43:27;12.65;;;7.30;;
53646;SDS011;39550;52.230;5.194;2024-02-16T11:45:52;14.80;;;8.30;;
53646;SDS011;39550;52.230;5.194;2024-02-16T11:48:21;15.70;;;8.20;;
53646;SDS011;39550;52.230;5.194;2024-02-16T11:50:48;11.85;;;7.43;;
53646;SDS011;39550;52.230;5.194;2024-02-16T11:53:17;12.18;;;7.38;;
53646;SDS011;39550;52.230;5.194;2024-02-16T11:55:49;11.45;;;7.90;;
53646;SDS011;39550;52.230;5.194;2024-02-16T11:58:18;11.70;;;7.30;;
53646;SDS011;39550;52.230;5.194;2024-02-16T12:00:44;12.18;;;7.28;;
53646;SDS011;39550;52.230;5.194;2024-02-16T12:03:10;13.15;;;7.47;;
53646;SDS011;39550;52.230;5.194;2024-02-16T12:05:36;12.38;;;6.95;;
53646;SDS011;39550;52.230;5.194;2024-02-16T12:08:01;11.63;;;7.20;;
53646;SDS011;39550;52.230;5.194;2024-02-16T12:10:26;13.70;;;8.38;;
53646;SDS011;39550;52.230;5.194;2024-02-16T12:12:53;11.77;;;7.38;;
53646;SDS011;39550;52.230;5.194;2024-02-16T12:15:19;12.13;;;7.30;;
53646;SDS011;39550;52.230;5.194;2024-02-16T12:17:45;13.95;;;7.35;;
53646;SDS011;39550;52.230;5.194;2024-02-16T12:20:11;12.70;;;7.40;;
53646;SDS011;39550;52.230;5.194;2024-02-16T12:22:40;12.75;;;7.28;;
53646;SDS011;39550;52.230;5.194;2024-02-16T12:25:05;13.45;;;7.28;;
53646;SDS011;39550;52.230;5.194;2024-02-16T12:27:31;11.02;;;7.68;;
53646;SDS011;39550;52.230;5.194;2024-02-16T12:29:56;11.40;;;7.53;;
53646;SDS011;39550;52.230;5.194;2024-02-16T12:32:21;12.48;;;7.45;;
53646;SDS011;39550;52.230;5.194;2024-02-16T12:34:47;13.70;;;6.80;;
53646;SDS011;39550;52.230;5.194;2024-02-16T12:37:12;14.05;;;7.35;;
53646;SDS011;39550;52.230;5.194;2024-02-16T12:39:38;12.05;;;6.70;;
53646;SDS011;39550;52.230;5.194;2024-02-16T12:42:04;11.27;;;6.93;;
53646;SDS011;39550;52.230;5.194;2024-02-16T12:44:29;10.93;;;6.45;;
53646;SDS011;39550;52.230;5.194;2024-02-16T12:46:55;11.80;;;6.85;;
53646;SDS011;39550;52.230;5.194;2024-02-16T12:49:21;11.75;;;6.97;;
53646;SDS011;39550;52.230;5.194;2024-02-16T12:51:50;10.20;;;6.90;;
53646;SDS011;39550;52.230;5.194;2024-02-16T12:54:16;12.00;;;6.60;;
53646;SDS011;39550;52.230;5.194;2024-02-16T12:56:44;9.82;;;6.50;;
53646;SDS011;39550;52.230;5.194;2024-02-16T12:59:13;10.50;;;6.45;;
53646;SDS011;39550;52.230;5.194;2024-02-16T13:01:38;11.27;;;6.93;;
53646;SDS011;39550;52.230;5.194;2024-02-16T13:04:04;10.95;;;6.93;;
53646;SDS011;39550;52.230;5.194;2024-02-16T13:06:30;11.15;;;6.47;;
53646;SDS011;39550;52.230;5.194;2024-02-16T13:08:55;11.45;;;6.60;;
53646;SDS011;39550;52.230;5.194;2024-02-16T13:11:21;10.07;;;6.15;;
53646;SDS011;39550;52.230;5.194;2024-02-16T13:13:46;9.52;;;6.15;;
53646;SDS011;39550;52.230;5.194;2024-02-16T13:16:11;10.20;;;6.53;;
53646;SDS011;39550;52.230;5.194;2024-02-16T13:18:36;10.48;;;6.57;;
53646;SDS011;39550;52.230;5.194;2024-02-16T13:21:02;10.77;;;5.47;;
53646;SDS011;39550;52.230;5.194;2024-02-16T13:23:27;11.57;;;5.78;;
53646;SDS011;39550;52.230;5.194;2024-02-16T13:25:54;8.35;;;5.68;;
53646;SDS011;39550;52.230;5.194;2024-02-16T13:28:19;9.40;;;6.05;;
53646;SDS011;39550;52.230;5.194;2024-02-16T13:30:45;10.07;;;6.50;;
53646;SDS011;39550;52.230;5.194;2024-02-16T13:33:10;10.00;;;6.50;;
53646;SDS011;39550;52.230;5.194;2024-02-16T13:35:36;11.82;;;6.85;;
53646;SDS011;39550;52.230;5.194;2024-02-16T13:38:02;10.38;;;6.30;;
53646;SDS011;39550;52.230;5.194;2024-02-16T13:40:27;9.50;;;6.00;;
53646;SDS011;39550;52.230;5.194;2024-02-16T13:42:52;9.88;;;5.60;;
53646;SDS011;39550;52.230;5.194;2024-02-16T13:45:24;10.75;;;6.22;;
53646;SDS011;39550;52.230;5.194;2024-02-16T13:47:50;10.50;;;6.53;;
53646;SDS011;39550;52.230;5.194;2024-02-16T13:50:16;10.38;;;6.32;;
53646;SDS011;39550;52.230;5.194;2024-02-16T13:52:41;10.45;;;6.10;;
53646;SDS011;39550;52.230;5.194;2024-02-16T13:55:07;10.10;;;6.40;;
53646;SDS011;39550;52.230;5.194;2024-02-16T13:57:33;11.13;;;6.35;;
53646;SDS011;39550;52.230;5.194;2024-02-16T13:59:58;9.93;;;6.47;;
53646;SDS011;39550;52.230;5.194;2024-02-16T14:02:23;9.77;;;5.78;;
53646;SDS011;39550;52.230;5.194;2024-02-16T14:04:49;10.32;;;6.03;;
53646;SDS011;39550;52.230;5.194;2024-02-16T14:07:16;9.25;;;5.97;;
53646;SDS011;39550;52.230;5.194;2024-02-16T14:09:41;9.00;;;6.00;;
53646;SDS011;39550;52.230;5.194;2024-02-16T14:12:06;8.85;;;6.10;;
53646;SDS011;39550;52.230;5.194;2024-02-16T14:14:32;10.02;;;5.45;;
53646;SDS011;39550;52.230;5.194;2024-02-16T14:16:57;9.20;;;5.88;;
53646;SDS011;39550;52.230;5.194;2024-02-16T14:19:22;10.32;;;6.63;;
53646;SDS011;39550;52.230;5.194;2024-02-16T14:21:47;8.35;;;5.40;;
53646;SDS011;39550;52.230;5.194;2024-02-16T14:24:13;10.15;;;6.20;;
53646;SDS011;39550;52.230;5.194;2024-02-16T14:26:39;10.15;;;6.30;;
53646;SDS011;39550;52.230;5.194;2024-02-16T14:29:04;9.43;;;6.25;;
53646;SDS011;39550;52.230;5.194;2024-02-16T14:31:30;8.48;;;5.65;;
53646;SDS011;39550;52.230;5.194;2024-02-16T14:33:55;9.15;;;5.80;;
53646;SDS011;39550;52.230;5.194;2024-02-16T14:36:21;10.32;;;6.43;;
53646;SDS011;39550;52.230;5.194;2024-02-16T14:38:46;9.63;;;5.75;;
53646;SDS011;39550;52.230;5.194;2024-02-16T14:41:12;8.95;;;5.75;;